createdAt,value
2023-10-29T00:01:47.131Z,100550.09
2023-10-29T00:04:17.192Z,100550.91
2023-10-29T00:06:47.151Z,100557.81
2023-10-29T00:09:22.512Z,100544.78
2023-10-29T00:11:52.417Z,100561.19
2023-10-29T00:14:23.089Z,100563.78
2023-10-29T00:16:53.194Z,100568.94
2023-10-29T00:19:23.052Z,100573.25
2023-10-29T00:21:52.845Z,100568.91
2023-10-29T00:24:23.840Z,100578.44
2023-10-29T00:26:53.761Z,100570.66
2023-10-29T00:29:24.114Z,100577.59
2023-10-29T00:31:53.937Z,100573.28
2023-10-29T00:34:26.271Z,100575.84
2023-10-29T00:36:56.164Z,100574.97
2023-10-29T00:39:27.067Z,100574.97
2023-10-29T00:41:56.949Z,100562.88
2023-10-29T00:44:26.850Z,100556.00
2023-10-29T00:46:56.902Z,100562.03
2023-10-29T00:49:27.683Z,100553.38
2023-10-29T00:51:57.640Z,100546.44
2023-10-29T00:54:31.555Z,100556.81
2023-10-29T00:57:01.640Z,100550.78
2023-10-29T00:59:35.517Z,100553.38
2023-10-29T01:02:05.603Z,100566.34
2023-10-29T01:04:37.248Z,100563.75
2023-10-29T01:07:07.138Z,100575.84
2023-10-29T01:09:37.515Z,100564.59
2023-10-29T01:12:15.775Z,100556.84
2023-10-29T01:14:48.307Z,100552.53
2023-10-29T01:17:19.194Z,100563.81
2023-10-29T01:19:55.064Z,100573.34
2023-10-29T01:22:25.076Z,100574.19
2023-10-29T01:24:55.073Z,100574.22
2023-10-29T01:27:24.965Z,100570.75
2023-10-29T01:29:55.012Z,100575.03
2023-10-29T01:32:24.972Z,100580.25
2023-10-29T01:34:55.024Z,100588.00
2023-10-29T01:37:25.300Z,100588.91
2023-10-29T01:39:56.302Z,100574.19
2023-10-29T01:42:27.448Z,100569.00
2023-10-29T01:44:57.447Z,100576.75
2023-10-29T01:47:27.387Z,100574.19
2023-10-29T01:49:57.542Z,100566.41
2023-10-29T01:52:27.744Z,100557.72
2023-10-29T01:55:09.590Z,100556.00
2023-10-29T01:57:39.665Z,100557.72
2023-10-29T02:00:21.289Z,100553.38
2023-10-29T02:02:53.077Z,100542.09
2023-10-29T02:05:24.079Z,100549.03
2023-10-29T02:07:54.208Z,100546.44
2023-10-29T02:10:28.568Z,100545.56
2023-10-29T02:12:58.532Z,100552.50
2023-10-29T02:15:28.864Z,100547.34
2023-10-29T02:17:58.786Z,100555.94
2023-10-29T02:20:28.654Z,100558.50
2023-10-29T02:22:58.519Z,100544.66
2023-10-29T02:25:29.107Z,100548.97
2023-10-29T02:27:58.917Z,100544.66
2023-10-29T02:30:28.724Z,100551.53
2023-10-29T02:32:58.867Z,100544.66
2023-10-29T02:35:39.319Z,100529.09
2023-10-29T02:38:09.155Z,100529.94
2023-10-29T02:40:44.099Z,100518.69
2023-10-29T02:43:14.788Z,100513.53
2023-10-29T02:45:46.153Z,100523.91
2023-10-29T02:48:16.931Z,100535.13
2023-10-29T02:50:47.462Z,100529.94
2023-10-29T02:53:17.330Z,100522.16
2023-10-29T02:55:47.628Z,100518.69
2023-10-29T02:58:17.533Z,100514.34
2023-10-29T03:00:50.387Z,100509.19
2023-10-29T03:03:20.581Z,100499.69
2023-10-29T03:05:57.234Z,100499.69
2023-10-29T03:08:32.737Z,100494.41
2023-10-29T03:11:06.595Z,100496.16
2023-10-29T03:13:37.377Z,100502.16
2023-10-29T03:16:11.113Z,100471.91
2023-10-29T03:18:40.990Z,100471.06
2023-10-29T03:21:16.385Z,100453.75
2023-10-29T03:23:46.321Z,100520.38
2023-10-29T03:26:18.229Z,100527.25
2023-10-29T03:28:48.371Z,100536.75
2023-10-29T03:31:20.103Z,100532.41
2023-10-29T03:33:50.098Z,100544.50
2023-10-29T03:36:20.702Z,100541.94
2023-10-29T03:38:50.676Z,100540.22
2023-10-29T03:41:23.877Z,100515.09
2023-10-29T03:43:53.747Z,100524.63
2023-10-29T03:46:24.269Z,100540.16
2023-10-29T03:48:54.668Z,100542.75
2023-10-29T03:51:29.258Z,100536.66
2023-10-29T03:53:59.222Z,100545.31
2023-10-29T03:56:29.038Z,100540.16
2023-10-29T03:58:58.869Z,100549.69
2023-10-29T04:01:28.886Z,100551.44
2023-10-29T04:03:59.308Z,100541.97
2023-10-29T04:06:29.200Z,100547.19
2023-10-29T04:08:59.088Z,100548.97
2023-10-29T04:11:28.984Z,100543.78
2023-10-29T04:13:58.841Z,100552.44
2023-10-29T04:16:29.409Z,100553.28
2023-10-29T04:18:59.279Z,100559.34
2023-10-29T04:21:29.101Z,100561.94
2023-10-29T04:23:59.008Z,100552.44
2023-10-29T04:26:29.217Z,100544.66
2023-10-29T04:29:00.435Z,100553.34
2023-10-29T04:31:35.300Z,100553.34
2023-10-29T04:34:05.838Z,100542.97
2023-10-29T04:36:35.666Z,100549.88
2023-10-29T04:39:05.489Z,100556.81
2023-10-29T04:41:35.546Z,100560.28
2023-10-29T04:44:06.314Z,100555.13
2023-10-29T04:46:36.148Z,100551.63
2023-10-29T04:49:06.175Z,100549.06
2023-10-29T04:51:44.095Z,100547.34
2023-10-29T04:54:14.008Z,100546.47
2023-10-29T04:56:43.939Z,100548.19
2023-10-29T04:59:14.559Z,100542.16
2023-10-29T05:01:44.569Z,100542.16
2023-10-29T05:04:14.553Z,100537.00
2023-10-29T05:06:46.887Z,100544.75
2023-10-29T05:09:16.705Z,100543.88
2023-10-29T05:11:46.788Z,100555.97
2023-10-29T05:14:16.672Z,100562.00
2023-10-29T05:16:47.100Z,100561.16
2023-10-29T05:19:16.902Z,100567.22
2023-10-29T05:21:46.747Z,100572.41
2023-10-29T05:24:16.674Z,100580.19
2023-10-29T05:26:46.555Z,100575.03
2023-10-29T05:29:17.498Z,100566.38
2023-10-29T05:31:47.821Z,100568.13
2023-10-29T05:34:17.635Z,100568.13
2023-10-29T05:36:48.413Z,100559.44
2023-10-29T05:39:18.481Z,100560.38
2023-10-29T05:41:48.762Z,100552.56
2023-10-29T05:44:18.573Z,100555.19
2023-10-29T05:46:49.470Z,100549.13
2023-10-29T05:49:19.356Z,100549.13
2023-10-29T05:51:51.300Z,100544.81
2023-10-29T05:54:21.113Z,100550.84
2023-10-29T05:56:51.594Z,100544.81
2023-10-29T05:59:21.824Z,100539.63
2023-10-29T06:01:52.227Z,100543.97
2023-10-29T06:04:22.195Z,100541.38
2023-10-29T06:06:52.050Z,100531.00
2023-10-29T06:09:24.475Z,100541.38
2023-10-29T06:11:54.894Z,100530.16
2023-10-29T06:14:24.849Z,100522.41
2023-10-29T06:17:05.992Z,100522.38
2023-10-29T06:19:42.005Z,100517.16
2023-10-29T06:22:12.187Z,100508.53
2023-10-29T06:24:42.213Z,100510.28
2023-10-29T06:27:12.462Z,100499.06
2023-10-29T06:29:42.419Z,100499.91
2023-10-29T06:32:12.802Z,100491.28
2023-10-29T06:34:42.645Z,100504.28
2023-10-29T06:37:20.140Z,100507.72
2023-10-29T06:39:50.096Z,100499.97
2023-10-29T06:42:19.928Z,100506.88
2023-10-29T06:44:49.960Z,100505.19
2023-10-29T06:47:19.990Z,100483.56
2023-10-29T06:49:51.950Z,100493.09
2023-10-29T06:52:24.377Z,100490.50
2023-10-29T06:54:54.766Z,100498.28
2023-10-29T06:57:25.304Z,100495.69
2023-10-29T06:59:55.539Z,100506.03
2023-10-29T07:02:26.040Z,100501.72
2023-10-29T07:04:56.076Z,100509.50
2023-10-29T07:07:29.588Z,100506.06
2023-10-29T07:09:59.432Z,100511.25
2023-10-29T07:12:29.220Z,100517.28
2023-10-29T07:14:59.976Z,100512.97
2023-10-29T07:17:30.423Z,100499.16
2023-10-29T07:20:00.460Z,100504.31
2023-10-29T07:22:31.622Z,100512.97
2023-10-29T07:25:01.506Z,100512.13
2023-10-29T07:27:31.813Z,100493.97
2023-10-29T07:30:01.984Z,100485.31
2023-10-29T07:32:32.126Z,100468.91
2023-10-29T07:35:02.063Z,100479.25
2023-10-29T07:37:33.978Z,100461.09
2023-10-29T07:40:04.091Z,100470.59
2023-10-29T07:42:34.665Z,100458.50
2023-10-29T07:45:05.123Z,100445.50
2023-10-29T07:47:35.717Z,100457.63
2023-10-29T07:50:07.299Z,100469.72
2023-10-29T07:52:41.077Z,100439.44
2023-10-29T07:55:11.156Z,100452.41
2023-10-29T07:57:43.517Z,100461.06
2023-10-29T08:00:16.554Z,100436.00
2023-10-29T08:02:47.561Z,100442.06
2023-10-29T08:05:17.568Z,100446.41
2023-10-29T08:07:48.001Z,100455.00
2023-10-29T08:10:17.970Z,100467.97
2023-10-29T08:12:47.962Z,100466.28
2023-10-29T08:15:18.072Z,100464.53
2023-10-29T08:17:49.588Z,100461.03
2023-10-29T08:20:19.452Z,100454.13
2023-10-29T08:22:49.334Z,100446.28
2023-10-29T08:25:19.229Z,100442.00
2023-10-29T08:27:52.208Z,100441.13
2023-10-29T08:30:22.085Z,100437.66
2023-10-29T08:32:52.028Z,100450.63
2023-10-29T08:35:21.966Z,100440.25
2023-10-29T08:37:51.852Z,100449.75
2023-10-29T08:40:21.686Z,100436.81
2023-10-29T08:42:52.130Z,100424.72
2023-10-29T08:45:38.303Z,100427.31
2023-10-29T08:48:12.394Z,100419.47
2023-10-29T08:50:42.403Z,100414.28
2023-10-29T08:53:12.821Z,100422.94
2023-10-29T08:55:42.890Z,100416.88
2023-10-29T08:58:13.275Z,100415.16
2023-10-29T09:00:46.885Z,100416.88
2023-10-29T09:03:17.342Z,100410.78
2023-10-29T09:05:47.847Z,100411.63
2023-10-29T09:08:17.883Z,100407.31
2023-10-29T09:10:47.849Z,100424.59
2023-10-29T09:13:20.312Z,100423.72
2023-10-29T09:15:50.463Z,100427.19
2023-10-29T09:18:22.043Z,100408.16
2023-10-29T09:20:53.155Z,100416.78
2023-10-29T09:23:24.410Z,100367.59
2023-10-29T09:25:54.338Z,100414.19
2023-10-29T09:28:25.280Z,100405.53
2023-10-29T09:30:55.107Z,100394.25
2023-10-29T09:33:25.323Z,100373.44
2023-10-29T09:35:55.182Z,100371.69
2023-10-29T09:38:25.566Z,100374.31
2023-10-29T09:40:56.887Z,100377.75
2023-10-29T09:43:31.830Z,100362.16
2023-10-29T09:46:05.899Z,100356.94
2023-10-29T09:48:37.311Z,100352.66
2023-10-29T09:51:08.099Z,100352.69
2023-10-29T09:53:40.814Z,100357.00
2023-10-29T09:56:11.505Z,100352.69
2023-10-29T09:58:42.530Z,100365.63
2023-10-29T10:01:12.505Z,100345.78
2023-10-29T10:03:43.039Z,100344.88
2023-10-29T10:06:16.828Z,100341.47
2023-10-29T10:08:58.669Z,100336.28
2023-10-29T10:11:28.822Z,100324.19
2023-10-29T10:13:59.230Z,100329.34
2023-10-29T10:16:29.155Z,100325.88
2023-10-29T10:19:03.071Z,100326.78
2023-10-29T10:21:44.663Z,100326.81
2023-10-29T10:24:16.054Z,100313.91
2023-10-29T10:26:46.116Z,100315.66
2023-10-29T10:29:15.986Z,100319.06
2023-10-29T10:31:45.887Z,100303.47
2023-10-29T10:34:20.449Z,100320.75
2023-10-29T10:36:50.537Z,100314.66
2023-10-29T10:39:23.884Z,100314.63
2023-10-29T10:41:53.837Z,100303.41
2023-10-29T10:44:28.263Z,100305.19
2023-10-29T10:47:00.185Z,100305.97
2023-10-29T10:49:35.301Z,100301.59
2023-10-29T10:52:05.788Z,100296.44
2023-10-29T10:54:37.451Z,100286.03
2023-10-29T10:57:08.245Z,100292.03
2023-10-29T10:59:41.219Z,100285.09
2023-10-29T11:02:14.106Z,100280.75
2023-10-29T11:04:47.694Z,100275.59
2023-10-29T11:07:17.869Z,100267.72
2023-10-29T11:09:48.367Z,100269.47
2023-10-29T11:12:21.244Z,100267.81
2023-10-29T11:15:21.700Z,100273.78
2023-10-29T11:17:59.732Z,100266.88
2023-10-29T11:20:40.102Z,100251.25
2023-10-29T11:23:13.537Z,100244.31
2023-10-29T11:25:44.152Z,100240.91
2023-10-29T11:28:26.215Z,100234.84
2023-10-29T11:31:31.938Z,100223.63
2023-10-29T11:34:01.774Z,100219.31
2023-10-29T11:36:39.731Z,100202.03
2023-10-29T11:39:15.988Z,100209.78
2023-10-29T11:41:47.584Z,100205.38
2023-10-29T11:44:26.755Z,100201.09
2023-10-29T11:46:57.239Z,100204.53
2023-10-29T11:49:28.083Z,100201.09
2023-10-29T11:52:05.162Z,100197.59
2023-10-29T11:54:38.494Z,100202.84
2023-10-29T11:57:08.741Z,100181.25
2023-10-29T11:59:55.604Z,100168.22
2023-10-29T12:02:26.610Z,100166.47
2023-10-29T12:04:57.782Z,100163.88
2023-10-29T12:07:31.895Z,100158.69
2023-10-29T12:10:05.998Z,100153.53
2023-10-29T12:12:36.582Z,100153.50
2023-10-29T12:15:08.843Z,100150.03
2023-10-29T12:17:44.879Z,100144.91
2023-10-29T12:20:26.857Z,100135.38
2023-10-29T12:22:59.413Z,100131.06
2023-10-29T12:25:30.238Z,100130.13
2023-10-29T12:28:02.255Z,100122.44
2023-10-29T12:30:36.107Z,100119.81
2023-10-29T12:33:24.021Z,100099.91
2023-10-29T12:35:56.702Z,100100.75
2023-10-29T12:38:29.371Z,100090.38
2023-10-29T12:41:09.757Z,100104.19
2023-10-29T12:43:48.528Z,100099.91
2023-10-29T12:46:20.955Z,100095.50
2023-10-29T12:49:09.094Z,100084.22
2023-10-29T12:51:42.336Z,100084.22
2023-10-29T12:54:21.685Z,100074.72
2023-10-29T12:57:13.502Z,100080.78
2023-10-29T12:59:45.348Z,100059.19
2023-10-29T13:02:23.889Z,100060.00
2023-10-29T13:04:54.085Z,100057.31
2023-10-29T13:07:23.999Z,100050.38
2023-10-29T13:09:56.494Z,100055.53
2023-10-29T13:12:29.158Z,100050.38
2023-10-29T13:14:59.161Z,100042.56
2023-10-29T13:17:30.648Z,100038.16
2023-10-29T13:20:03.937Z,100033.78
2023-10-29T13:22:33.830Z,100013.81
2023-10-29T13:25:05.628Z,100011.22
2023-10-29T13:27:35.845Z,100009.47
2023-10-29T13:30:08.940Z,99997.41
2023-10-29T13:32:38.857Z,99994.84
2023-10-29T13:35:10.325Z,99992.19
2023-10-29T13:37:40.182Z,99990.38
2023-10-29T13:40:11.103Z,99977.44
2023-10-29T13:42:40.923Z,99969.56
2023-10-29T13:45:13.483Z,99963.53
2023-10-29T13:47:44.119Z,99957.47
2023-10-29T13:50:14.585Z,99954.81
2023-10-29T13:52:44.551Z,99949.63
2023-10-29T13:55:15.028Z,99944.44
2023-10-29T13:57:44.841Z,99947.81
2023-10-29T14:00:15.683Z,99945.28
2023-10-29T14:02:45.656Z,99940.03
2023-10-29T14:05:15.524Z,99938.19
2023-10-29T14:07:45.373Z,99953.72
2023-10-29T14:10:15.799Z,99946.78
2023-10-29T14:12:47.219Z,99947.66
2023-10-29T14:15:17.558Z,99941.53
2023-10-29T14:17:47.569Z,99938.16
2023-10-29T14:20:18.663Z,99933.00
2023-10-29T14:22:48.573Z,99927.75
2023-10-29T14:25:19.030Z,99910.44
2023-10-29T14:27:48.806Z,99929.38
2023-10-29T14:30:18.843Z,99919.78
2023-10-29T14:32:48.840Z,99919.81
2023-10-29T14:35:19.078Z,99944.09
2023-10-29T14:37:52.111Z,99943.25
2023-10-29T14:40:22.425Z,99939.84
2023-10-29T14:42:59.048Z,99931.00
2023-10-29T14:45:43.276Z,99944.75
2023-10-29T14:48:13.216Z,99953.47
2023-10-29T14:50:43.332Z,99946.63
2023-10-29T14:53:13.371Z,99963.84
2023-10-29T14:55:47.756Z,99974.22
2023-10-29T14:58:18.053Z,99965.53
2023-10-29T15:00:48.509Z,99969.81
2023-10-29T15:03:18.516Z,99972.34
2023-10-29T15:05:48.909Z,99969.75
2023-10-29T15:08:18.742Z,99979.16
2023-10-29T15:10:53.111Z,99962.69
2023-10-29T15:13:23.136Z,99952.22
2023-10-29T15:15:53.383Z,99953.81
2023-10-29T15:18:23.373Z,99942.56
2023-10-29T15:21:00.777Z,99937.41
2023-10-29T15:23:31.914Z,99948.53
2023-10-29T15:26:02.482Z,99932.00
2023-10-29T15:28:32.368Z,99932.03
2023-10-29T15:31:09.919Z,99935.44
2023-10-29T15:33:40.199Z,99921.56
2023-10-29T15:36:12.073Z,99917.19
2023-10-29T15:38:42.893Z,99927.41
2023-10-29T15:41:13.826Z,99908.44
2023-10-29T15:43:43.715Z,99910.03
2023-10-29T15:46:13.703Z,99901.41
2023-10-29T15:48:43.724Z,99898.84
2023-10-29T15:51:13.672Z,99897.09
2023-10-29T15:53:43.778Z,99898.84
2023-10-29T15:56:14.212Z,99873.69
2023-10-29T15:58:44.151Z,99887.44
2023-10-29T16:01:21.158Z,99881.41
2023-10-29T16:03:51.728Z,99873.63
2023-10-29T16:06:22.151Z,99877.84
2023-10-29T16:08:51.961Z,99866.63
2023-10-29T16:11:27.648Z,99864.75
2023-10-29T16:13:57.807Z,99863.91
2023-10-29T16:16:28.971Z,99874.34
2023-10-29T16:18:59.038Z,99876.78
2023-10-29T16:21:28.958Z,99875.75
2023-10-29T16:23:59.070Z,99873.22
2023-10-29T16:26:28.913Z,99875.72
2023-10-29T16:28:58.766Z,99872.22
2023-10-29T16:31:28.670Z,99879.06
2023-10-29T16:33:58.625Z,99889.38
2023-10-29T16:36:29.118Z,99891.91
2023-10-29T16:38:59.050Z,99872.84
2023-10-29T16:41:29.533Z,99876.25
2023-10-29T16:44:02.120Z,99870.19
2023-10-29T16:46:33.074Z,99871.81
2023-10-29T16:49:03.551Z,99885.63
2023-10-29T16:51:33.529Z,99891.59
2023-10-29T16:54:03.741Z,99900.16
2023-10-29T16:56:34.191Z,99902.69
2023-10-29T16:59:05.558Z,99911.28
2023-10-29T17:01:37.290Z,99910.28
2023-10-29T17:04:07.232Z,99917.13
2023-10-29T17:06:37.108Z,99918.75
2023-10-29T17:09:07.005Z,99915.19
2023-10-29T17:11:36.879Z,99905.59
2023-10-29T17:14:06.739Z,99906.44
2023-10-29T17:16:36.652Z,99898.50
2023-10-29T17:19:07.168Z,99893.22
2023-10-29T17:21:37.177Z,99887.94
2023-10-29T17:24:08.075Z,99892.25
2023-10-29T17:26:38.666Z,99875.66
2023-10-29T17:29:08.752Z,99868.69
2023-10-29T17:31:39.248Z,99879.91
2023-10-29T17:34:09.173Z,99885.03
2023-10-29T17:36:39.572Z,99886.78
2023-10-29T17:39:13.829Z,99885.06
2023-10-29T17:41:43.706Z,99886.59
2023-10-29T17:44:13.642Z,99884.75
2023-10-29T17:46:44.299Z,99888.13
2023-10-29T17:49:14.270Z,99878.56
2023-10-29T17:51:44.658Z,99894.03
2023-10-29T17:54:14.605Z,99886.13
2023-10-29T17:56:45.012Z,99886.03
2023-10-29T17:59:14.972Z,99882.56
2023-10-29T18:01:44.838Z,99869.50
2023-10-29T18:04:15.221Z,99879.88
2023-10-29T18:06:50.894Z,99881.47
2023-10-29T18:09:20.782Z,99877.00
2023-10-29T18:11:51.939Z,99869.13
2023-10-29T18:14:21.818Z,99858.72
2023-10-29T18:16:52.668Z,99875.09
2023-10-29T18:19:22.480Z,99867.19
2023-10-29T18:21:52.805Z,99873.34
2023-10-29T18:24:22.732Z,99881.03
2023-10-29T18:26:53.418Z,99867.16
2023-10-29T18:29:23.416Z,99879.22
2023-10-29T18:31:53.906Z,99854.97
2023-10-29T18:34:24.076Z,99865.34
2023-10-29T18:36:54.502Z,99859.41
2023-10-29T18:39:24.533Z,99841.41
2023-10-29T18:41:54.894Z,99868.78
2023-10-29T18:44:31.104Z,99871.38
2023-10-29T18:47:01.829Z,99880.81
2023-10-29T18:49:31.891Z,99882.53
2023-10-29T18:52:04.065Z,99868.69
2023-10-29T18:54:36.870Z,99860.94
2023-10-29T18:57:07.987Z,99869.44
2023-10-29T18:59:37.929Z,99866.75
2023-10-29T19:02:07.803Z,99865.81
2023-10-29T19:04:37.757Z,99847.56
2023-10-29T19:07:11.247Z,99852.72
2023-10-29T19:09:41.099Z,99851.06
2023-10-29T19:12:10.995Z,99867.44
2023-10-29T19:14:43.563Z,99861.50
2023-10-29T19:17:13.885Z,99853.72
2023-10-29T19:19:43.781Z,99820.84
2023-10-29T19:22:14.348Z,99838.00
2023-10-29T19:24:44.446Z,99830.28
2023-10-29T19:27:14.506Z,99851.94
2023-10-29T19:29:44.430Z,99868.38
2023-10-29T19:32:14.826Z,99871.00
2023-10-29T19:34:44.596Z,99865.69
2023-10-29T19:37:18.323Z,99857.19
2023-10-29T19:39:48.352Z,99856.19
2023-10-29T19:42:18.951Z,99857.88
2023-10-29T19:44:48.859Z,99836.25
2023-10-29T19:47:19.195Z,99849.38
2023-10-29T19:49:49.194Z,99842.47
2023-10-29T19:52:20.248Z,99845.88
2023-10-29T19:54:55.099Z,99823.22
2023-10-29T19:57:25.651Z,99834.38
2023-10-29T19:59:55.673Z,99838.78
2023-10-29T20:02:26.149Z,99839.63
2023-10-29T20:04:56.312Z,99838.63
2023-10-29T20:07:27.064Z,99841.22
2023-10-29T20:09:56.854Z,99856.69
2023-10-29T20:12:27.367Z,99850.69
2023-10-29T20:14:57.238Z,99862.66
2023-10-29T20:17:29.171Z,99860.78
2023-10-29T20:19:59.061Z,99849.41
2023-10-29T20:22:28.928Z,99837.28
2023-10-29T20:24:59.450Z,99836.28
2023-10-29T20:27:29.330Z,99836.28
2023-10-29T20:29:59.199Z,99848.34
2023-10-29T20:32:29.666Z,99843.19
2023-10-29T20:34:59.611Z,99851.81
2023-10-29T20:37:31.205Z,99841.31
2023-10-29T20:40:01.125Z,99843.91
2023-10-29T20:42:31.083Z,99850.91
2023-10-29T20:45:00.987Z,99866.44
2023-10-29T20:47:31.273Z,99854.19
2023-10-29T20:50:01.449Z,99856.81
2023-10-29T20:52:31.531Z,99849.84
2023-10-29T20:55:01.510Z,99852.34
2023-10-29T20:57:31.763Z,99843.72
2023-10-29T21:00:04.149Z,99840.16
2023-10-29T21:02:34.756Z,99836.75
2023-10-29T21:05:05.369Z,99821.13
2023-10-29T21:07:35.280Z,99819.25
2023-10-29T21:10:06.279Z,99817.63
2023-10-29T21:12:38.436Z,99811.56
2023-10-29T21:15:09.198Z,99806.28
2023-10-29T21:17:41.542Z,99814.19
2023-10-29T21:20:11.769Z,99818.38
2023-10-29T21:22:43.165Z,99840.91
2023-10-29T21:25:13.011Z,99845.13
2023-10-29T21:27:43.487Z,99848.59
2023-10-29T21:30:14.454Z,99838.16
2023-10-29T21:32:44.545Z,99839.91
2023-10-29T21:35:14.810Z,99829.56
2023-10-29T21:37:46.473Z,99842.34
2023-10-29T21:40:16.610Z,99850.19
2023-10-29T21:42:46.958Z,99840.72
2023-10-29T21:45:16.793Z,99844.03
2023-10-29T21:47:46.822Z,99834.56
2023-10-29T21:50:17.404Z,99837.06
2023-10-29T21:52:47.262Z,99828.41
2023-10-29T21:55:17.267Z,99833.50
2023-10-29T21:57:47.340Z,99837.03
2023-10-29T22:00:17.702Z,99830.19
2023-10-29T22:02:48.734Z,99842.25
2023-10-29T22:05:18.786Z,99835.22
2023-10-29T22:07:50.134Z,99835.13
2023-10-29T22:10:20.057Z,99829.91
2023-10-29T22:12:50.590Z,99823.78
2023-10-29T22:15:20.464Z,99826.41
2023-10-29T22:17:50.915Z,99826.53
2023-10-29T22:20:20.905Z,99838.53
2023-10-29T22:22:51.483Z,99840.28
2023-10-29T22:25:21.329Z,99819.44
2023-10-29T22:27:51.131Z,99832.28
2023-10-29T22:30:20.949Z,99832.28
2023-10-29T22:32:51.018Z,99827.06
2023-10-29T22:35:20.889Z,99830.41
2023-10-29T22:37:51.265Z,99830.50
2023-10-29T22:40:21.088Z,99836.50
2023-10-29T22:42:51.271Z,99831.34
2023-10-29T22:45:21.414Z,99837.38
2023-10-29T22:47:51.271Z,99841.66
2023-10-29T22:50:21.225Z,99829.59
2023-10-29T22:52:51.668Z,99835.72
2023-10-29T22:55:21.573Z,99830.50
2023-10-29T22:57:54.298Z,99842.47
2023-10-29T23:00:24.454Z,99839.84
2023-10-29T23:02:55.590Z,99836.47
2023-10-29T23:05:25.470Z,99839.06
2023-10-29T23:07:56.318Z,99839.88
2023-10-29T23:10:26.153Z,99835.50
2023-10-29T23:12:55.939Z,99833.88
2023-10-29T23:15:25.950Z,99833.03
2023-10-29T23:17:57.454Z,99838.38
2023-10-29T23:20:27.767Z,99838.41
2023-10-29T23:22:57.844Z,99828.81
2023-10-29T23:25:27.730Z,99829.72
2023-10-29T23:27:57.623Z,99827.94
2023-10-29T23:30:27.590Z,99795.59
2023-10-29T23:32:58.442Z,99798.19
2023-10-29T23:35:28.469Z,99793.91
2023-10-29T23:37:58.446Z,99786.78
2023-10-29T23:40:30.203Z,99776.25
2023-10-29T23:43:00.035Z,99771.91
2023-10-29T23:45:30.354Z,99751.00
2023-10-29T23:48:02.327Z,99752.72
2023-10-29T23:50:32.354Z,99761.38
2023-10-29T23:53:04.685Z,99747.47
2023-10-29T23:55:34.586Z,99737.97
2023-10-29T23:58:04.922Z,99734.56
